Aérodrome :
LOGIN :

S'inscrire | Disclaimer

   EN    FR    IT 

 










Légende :    VFR   VFR Marginal   IFR   IFR Intensif   IFR Très Intensif
Visi : 
Plafond : 
>= 8 km
>= 3000ft
5 à 8 km
1000 à 3000 ft
1500m à 5 km
500 à 1000 ft
800 à 1500m
200 à 500 ft
< 800m
< 200 ft
Symboles :   Orages  Brouillard  Fortes neiges  Fortes précipitations  Vent > 20 kt
SIGMETs :   Divers  Orages  Givrage  Turbulence  Onde Orograph.  Cendres Volcan.






- Altitude de l'aérodrome : 194 ft
- Code IATA : ANE


LFJR - Angers Marcé

DERNIER METAR :
  • 091000Z AUTO 28012KT 240V330 9999 BKN026/// BKN041/// OVC058/// ///TCU 09/06 Q1015

METARs EXPIRÉS :
  • 090930Z AUTO 28010KT 250V330 9999 BKN027 BKN033 OVC041 09/06 Q1014
  • 090900Z AUTO 27011KT 250V310 9999 -RA BKN027/// BKN034/// OVC042/// ///TCU 09/06 Q1013
  • 090830Z AUTO 27015KT 9999 OVC031/// ///TCU 10/05 Q1013
  • 090800Z AUTO 26016KT 230V290 9999 BKN031/// OVC050/// ///TCU 09/05 Q1012
  • 090730Z AUTO 27015G25KT 9999 FEW028 OVC036 09/05 Q1011

Prévision TAF périmée.



MET'MAP, la Météo Aéronautique d'un coup d'oeil ! - Copyright ORBIFLY Décembre 2007 - Disclaimer

ORBIFLY MET'MAP TEAM :

Programmation & Développement : Alexandra Zaïnal
Sur une idée originale de : Baudouin d'Aumeries
Assistance à la programmation : Marc-Olivier Méhu
Soutien technique & logistique : Manuel Goepfert

Contact : metmap@orbifly.com




SOURCES & CREDITS :

   NOAA